Tokio, Japonia

11:42 PM JST on noiembrie 24, 2014 (GMT +0900)
Tokyo (Haneda) International | Change Station
CLOSE
Current Station
Aeroport
Location: Tokyo,
Elevation: 26 ft
Nearby Weather Stations

Elev 26 ft 35.55 °N, 139.78 °E | Updated 12 minutes ago

Partly Cloudy
Cer parţial noros
54 °F
Feels Like 54 °F
N
4
Vânt variabil Vânt from vest

astăzi
High -- | Low -- °F
--% Chance of Precip.
Ieri
High -- | Low -- °F
Precip. -- inch
6:24 AM 4:29 PM
Semilună în creştere, 5% visible
Presiunea 30.01 inch
Vizibilitatea 6.2 mile
Nori Few 2000 ft
Punctul de rouă 45 °F
Umiditatea 72%
Precipitaţii 0.00 inch
Adâncimea zăpezii Not available.
UV 0 out of 12
Pollen Not available.
Calitatea aerului Not available.
Flu Activity Not available.
METAR RJTT 241430Z 26003KT 9999 FEW020 BKN/// 12/07 Q1016 NOSIG RMK 1CU020 A3001

More Conditions Fewer Conditions

Presiunea 30.01 inch
Vizibilitatea 6.2 mile
Nori Few 2000 ft
Punctul de rouă 45 °F
Umiditatea 72%
Precipitaţii 0.00 inch
Adâncimea zăpezii Not available.
UV 0 out of 12
Pollen Not available.
Calitatea aerului Not available.
Flu Activity Not available.
METAR RJTT 241430Z 26003KT 9999 FEW020 BKN/// 12/07 Q1016 NOSIG RMK 1CU020 A3001

More Conditions Fewer Conditions

10-Day Weather Forecast

Almanac

Astronomie

Nov. 24, 2014 Răsărit Apus
Timpul Actual
Crepusculul Civil
Crepusculul nautic
Răsărit Astronomic
Luna
Durata zilei lumină
Lungimea zilei
Tomorrow will be .
, % of the Moon is Illuminated

Extremele de azi

Country Highs Country Lows

Community

WunderPhotos

Upload Photos

1,773,353 photos uploaded!

WunderBlogs® & News

Nearby

Calitatea aerului

  Calitatea aerului Index de calitate a aerului Poluat
Not available.

Adâncimea zapezii

Station Depth Elevation

Earthquake Activity

Oraş Distance Mag. Time & Date
Minimum magnitude displayed is 2.5.

Coastal Water Temperatures

Locul Temperatura

Nearby Weather Stations